Terminal Aerodrome Forecast
Issued by NWS Wichita, KS

Home | Current Version | Previous Version | Graphics & Text | Print | Product List | Glossary On
Versions: 1 2 3 4 5 6 7 8 9 10 11 12 13 14 15 16 17 18 19
000
FTUS43 KICT 222325
TAFICT
TAF
KICT 222325Z 2300/2324 VRB05KT 4SM -FZDZ BR OVC005
     FM230200 VRB04KT 2SM BR OVC005
     FM231500 03005KT P6SM SCT008 BKN015
     FM232000 10009KT P6SM SCT250=

USA.gov is the U.S. government's official web portal to all federal, state and local government web resources and services.